createdAt,value
2023-02-11T00:01:00.323Z,80.51
2023-02-11T00:03:26.936Z,80.32
2023-02-11T00:05:58.208Z,80.58
2023-02-11T00:08:25.067Z,80.23
2023-02-11T00:10:53.606Z,80.03
2023-02-11T00:13:20.090Z,80.01
2023-02-11T00:15:46.765Z,79.95
2023-02-11T00:18:13.555Z,80.42
2023-02-11T00:20:41.161Z,79.96
2023-02-11T00:23:07.882Z,80.01
2023-02-11T00:25:35.134Z,80.17
2023-02-11T00:28:01.717Z,80.20
2023-02-11T00:30:28.333Z,81.81
2023-02-11T00:32:54.942Z,81.02
2023-02-11T00:35:21.429Z,80.79
2023-02-11T00:37:47.961Z,81.11
2023-02-11T00:40:15.365Z,81.66
2023-02-11T00:42:42.817Z,81.50
2023-02-11T00:45:09.607Z,82.21
2023-02-11T00:47:36.916Z,82.07
2023-02-11T00:50:05.577Z,81.99
2023-02-11T00:52:33.104Z,82.36
2023-02-11T00:54:59.800Z,82.55
2023-02-11T00:57:26.321Z,82.16
2023-02-11T00:59:52.787Z,82.20
2023-02-11T01:02:19.360Z,83.18
2023-02-11T01:04:45.976Z,82.40
2023-02-11T01:07:12.486Z,83.35
2023-02-11T01:09:39.055Z,82.59
2023-02-11T01:12:05.791Z,82.03
2023-02-11T01:14:32.735Z,82.33
2023-02-11T01:17:01.466Z,82.35
2023-02-11T01:19:28.090Z,82.50
2023-02-11T01:21:54.617Z,82.21
2023-02-11T01:24:21.088Z,82.28
2023-02-11T01:26:47.545Z,82.59
2023-02-11T01:29:14.133Z,82.79
2023-02-11T01:31:40.773Z,83.65
2023-02-11T01:34:09.814Z,83.86
2023-02-11T01:36:36.436Z,83.28
2023-02-11T01:39:03.540Z,83.63
2023-02-11T01:41:30.429Z,83.48
2023-02-11T01:43:57.076Z,83.31
2023-02-11T01:46:35.982Z,83.61
2023-02-11T01:49:18.403Z,83.77
2023-02-11T01:51:54.388Z,83.36
2023-02-11T01:54:24.979Z,83.52
2023-02-11T01:56:54.710Z,83.63
2023-02-11T01:59:27.840Z,83.89
2023-02-11T02:02:00.772Z,83.77
2023-02-11T02:04:30.686Z,85.28
2023-02-11T02:07:05.344Z,87.43
2023-02-11T02:09:39.701Z,86.55
2023-02-11T02:12:06.451Z,85.87
2023-02-11T02:14:33.270Z,85.43
2023-02-11T02:16:59.751Z,86.12
2023-02-11T02:19:46.124Z,86.62
2023-02-11T02:22:54.780Z,87.47
2023-02-11T02:25:43.314Z,88.37
2023-02-11T02:28:37.254Z,88.91
2023-02-11T02:31:19.163Z,93.10
2023-02-11T02:33:50.119Z,95.90
2023-02-11T02:36:30.524Z,93.33
2023-02-11T02:39:10.533Z,91.20
2023-02-11T02:41:39.052Z,89.73
2023-02-11T02:44:08.219Z,89.29
2023-02-11T02:46:37.130Z,88.60
2023-02-11T02:49:06.659Z,88.53
2023-02-11T02:51:39.188Z,88.52
2023-02-11T02:54:31.713Z,89.44
2023-02-11T02:57:31.294Z,89.55
2023-02-11T03:00:18.086Z,89.62
2023-02-11T03:02:51.590Z,88.97
2023-02-11T03:05:42.624Z,88.70
2023-02-11T03:08:28.189Z,88.88
2023-02-11T03:10:56.589Z,92.49
2023-02-11T03:13:28.966Z,93.09
2023-02-11T03:15:59.064Z,91.79
2023-02-11T03:18:28.809Z,90.89
2023-02-11T03:20:57.096Z,90.50
2023-02-11T03:23:29.273Z,90.25
2023-02-11T03:26:02.977Z,91.82
2023-02-11T03:28:35.649Z,91.67
2023-02-11T03:31:34.076Z,96.20
2023-02-11T03:34:10.123Z,95.80
2023-02-11T03:36:41.171Z,93.23
2023-02-11T03:39:10.031Z,92.13
2023-02-11T03:41:38.435Z,91.46
2023-02-11T03:44:07.284Z,91.39
2023-02-11T03:46:38.420Z,90.61
2023-02-11T03:49:12.447Z,91.20
2023-02-11T03:51:40.588Z,91.19
2023-02-11T03:54:14.746Z,91.17
2023-02-11T03:56:51.799Z,90.95
2023-02-11T03:59:18.459Z,90.72
2023-02-11T04:01:45.080Z,91.08
2023-02-11T04:04:11.939Z,92.05
2023-02-11T04:06:38.909Z,91.10
2023-02-11T04:09:05.409Z,92.09
2023-02-11T04:11:31.891Z,91.69
2023-02-11T04:13:58.504Z,91.53
2023-02-11T04:16:25.215Z,91.98
2023-02-11T04:18:52.059Z,92.10
2023-02-11T04:21:18.755Z,92.33
2023-02-11T04:23:45.298Z,92.22
2023-02-11T04:26:12.023Z,91.85
2023-02-11T04:28:38.580Z,91.74
2023-02-11T04:31:05.690Z,91.85
2023-02-11T04:33:32.361Z,92.70
2023-02-11T04:35:59.115Z,92.07
2023-02-11T04:38:25.568Z,91.96
2023-02-11T04:40:52.227Z,91.71
2023-02-11T04:43:18.744Z,92.57
2023-02-11T04:45:45.613Z,92.10
2023-02-11T04:48:12.447Z,92.16
2023-02-11T04:50:38.893Z,92.31
2023-02-11T04:53:05.585Z,92.29
2023-02-11T04:55:32.181Z,92.38
2023-02-11T04:57:58.920Z,92.38
2023-02-11T05:00:25.508Z,92.40
2023-02-11T05:02:52.029Z,92.35
2023-02-11T05:05:18.762Z,92.44
2023-02-11T05:07:45.289Z,92.55
2023-02-11T05:10:11.900Z,92.44
2023-02-11T05:12:38.336Z,92.12
2023-02-11T05:15:05.758Z,92.44
2023-02-11T05:17:32.316Z,92.32
2023-02-11T05:19:58.908Z,92.06
2023-02-11T05:22:25.392Z,92.01
2023-02-11T05:24:51.915Z,91.85
2023-02-11T05:27:18.402Z,92.09
2023-02-11T05:29:44.855Z,91.33
2023-02-11T05:32:11.349Z,91.59
2023-02-11T05:34:38.266Z,91.52
2023-02-11T05:37:04.717Z,91.59
2023-02-11T05:39:31.537Z,92.02
2023-02-11T05:41:57.977Z,92.63
2023-02-11T05:44:24.867Z,92.02
2023-02-11T05:46:51.396Z,93.54
2023-02-11T05:49:18.336Z,93.44
2023-02-11T05:51:44.901Z,93.03
2023-02-11T05:54:12.017Z,93.09
2023-02-11T05:56:38.622Z,92.46
2023-02-11T05:59:05.457Z,92.50
2023-02-11T06:01:32.129Z,92.58
2023-02-11T06:03:58.742Z,92.72
2023-02-11T06:06:25.767Z,92.61
2023-02-11T06:08:52.249Z,92.47
2023-02-11T06:11:19.052Z,92.22
2023-02-11T06:13:45.594Z,92.54
2023-02-11T06:16:12.227Z,92.58
2023-02-11T06:18:39.021Z,92.46
2023-02-11T06:21:10.967Z,92.17
2023-02-11T06:23:38.014Z,92.12
2023-02-11T06:26:06.711Z,92.40
2023-02-11T06:28:34.014Z,92.00
2023-02-11T06:31:06.170Z,91.88
2023-02-11T06:33:33.804Z,91.84
2023-02-11T06:36:00.876Z,91.64
2023-02-11T06:38:27.698Z,91.91
2023-02-11T06:40:54.268Z,91.60
2023-02-11T06:43:20.809Z,91.26
2023-02-11T06:45:53.895Z,91.10
2023-02-11T06:48:21.265Z,90.91
2023-02-11T06:50:47.995Z,91.03
2023-02-11T06:53:14.628Z,90.87
2023-02-11T06:55:41.093Z,91.10
2023-02-11T06:58:07.630Z,90.63
2023-02-11T07:00:34.200Z,90.79
2023-02-11T07:03:00.673Z,91.21
2023-02-11T07:05:27.356Z,91.53
2023-02-11T07:07:54.106Z,91.60
2023-02-11T07:10:20.724Z,91.54
2023-02-11T07:12:47.268Z,91.70
2023-02-11T07:15:13.858Z,91.52
2023-02-11T07:17:40.314Z,91.28
2023-02-11T07:20:07.120Z,91.17
2023-02-11T07:22:34.657Z,91.04
2023-02-11T07:25:01.335Z,90.71
2023-02-11T07:27:27.807Z,90.49
2023-02-11T07:29:54.439Z,90.52
2023-02-11T07:32:21.030Z,90.48
2023-02-11T07:34:47.902Z,90.11
2023-02-11T07:37:14.606Z,89.70
2023-02-11T07:39:41.040Z,89.79
2023-02-11T07:42:07.597Z,89.87
2023-02-11T07:44:34.350Z,89.95
2023-02-11T07:47:01.261Z,89.71
2023-02-11T07:49:28.140Z,89.72
2023-02-11T07:51:54.885Z,88.79
2023-02-11T07:54:21.447Z,89.37
2023-02-11T07:56:48.128Z,88.71
2023-02-11T07:59:14.716Z,88.35
2023-02-11T08:01:41.246Z,86.51
2023-02-11T08:04:07.799Z,85.15
2023-02-11T08:06:39.815Z,85.23
2023-02-11T08:09:08.555Z,84.08
2023-02-11T08:11:35.722Z,83.21
2023-02-11T08:14:02.265Z,84.67
2023-02-11T08:16:31.968Z,85.20
2023-02-11T08:19:01.533Z,85.03
2023-02-11T08:21:29.161Z,85.00
2023-02-11T08:23:56.492Z,85.29
2023-02-11T08:26:26.495Z,84.35
2023-02-11T08:28:55.112Z,84.13
2023-02-11T08:31:25.000Z,84.45
2023-02-11T08:33:52.732Z,84.16
2023-02-11T08:36:22.454Z,83.91
2023-02-11T08:38:49.890Z,83.97
2023-02-11T08:41:17.962Z,82.69
2023-02-11T08:43:45.429Z,82.83
2023-02-11T08:46:15.611Z,82.26
2023-02-11T08:48:43.141Z,80.58
2023-02-11T08:51:29.931Z,81.21
2023-02-11T08:53:57.276Z,79.87
2023-02-11T08:56:24.313Z,78.88
2023-02-11T08:58:51.184Z,78.97
2023-02-11T09:01:22.825Z,80.34
2023-02-11T09:03:50.406Z,78.52
2023-02-11T09:06:17.267Z,78.83
2023-02-11T09:08:46.492Z,78.88
2023-02-11T09:11:13.722Z,78.51
2023-02-11T09:13:41.660Z,78.58
2023-02-11T09:16:08.842Z,77.90
2023-02-11T09:18:35.590Z,76.21
2023-02-11T09:21:04.471Z,74.68
2023-02-11T09:23:31.117Z,75.81
2023-02-11T09:25:57.512Z,75.26
2023-02-11T09:28:24.048Z,71.95
2023-02-11T09:30:51.136Z,72.36
2023-02-11T09:33:17.909Z,71.75
2023-02-11T09:35:44.554Z,68.76
2023-02-11T09:38:10.977Z,68.51
2023-02-11T09:40:43.243Z,67.12
2023-02-11T09:43:20.289Z,68.10
2023-02-11T09:45:47.823Z,67.95
2023-02-11T09:48:20.807Z,67.45
2023-02-11T09:50:52.449Z,67.42
2023-02-11T09:53:26.504Z,66.17
2023-02-11T09:55:59.763Z,66.69
2023-02-11T09:58:35.528Z,67.10
2023-02-11T10:01:02.006Z,65.12
2023-02-11T10:03:43.698Z,64.73
2023-02-11T10:06:32.252Z,65.87
2023-02-11T10:09:25.108Z,63.42
2023-02-11T10:12:25.825Z,64.38
2023-02-11T10:14:55.147Z,61.38
2023-02-11T10:17:28.624Z,60.34
2023-02-11T10:20:04.001Z,62.68
2023-02-11T10:22:47.410Z,61.08
2023-02-11T10:25:27.997Z,62.10
2023-02-11T10:27:58.064Z,61.39
2023-02-11T10:30:52.801Z,61.00
2023-02-11T10:33:36.921Z,60.82
2023-02-11T10:36:04.689Z,60.79
2023-02-11T10:38:31.523Z,59.37
2023-02-11T10:40:57.958Z,58.49
2023-02-11T10:43:28.155Z,58.57
2023-02-11T10:45:56.796Z,57.78
2023-02-11T10:48:47.629Z,57.17
2023-02-11T10:51:21.598Z,57.73
2023-02-11T10:54:04.847Z,56.65
2023-02-11T10:56:34.739Z,57.26
2023-02-11T10:59:21.670Z,56.85
2023-02-11T11:01:56.234Z,58.09
2023-02-11T11:04:45.421Z,57.84
2023-02-11T11:07:25.150Z,58.10
2023-02-11T11:10:04.990Z,57.99
2023-02-11T11:12:45.141Z,56.53
2023-02-11T11:15:11.757Z,57.78
2023-02-11T11:17:38.417Z,58.12
2023-02-11T11:20:25.444Z,57.63
2023-02-11T11:23:07.627Z,57.31
2023-02-11T11:25:38.484Z,57.19
2023-02-11T11:28:05.273Z,57.95
2023-02-11T11:30:39.393Z,57.93
2023-02-11T11:33:34.300Z,56.80
2023-02-11T11:36:06.425Z,55.85
2023-02-11T11:38:35.071Z,56.84
2023-02-11T11:41:16.959Z,57.14
2023-02-11T11:43:57.019Z,57.88
2023-02-11T11:46:28.087Z,57.06
2023-02-11T11:49:04.107Z,57.11
2023-02-11T11:51:32.898Z,57.64
2023-02-11T11:54:15.689Z,57.49
2023-02-11T11:56:53.804Z,56.40
2023-02-11T11:59:22.529Z,56.12
2023-02-11T12:02:12.256Z,57.56
2023-02-11T12:04:47.950Z,56.13
2023-02-11T12:07:14.362Z,56.40
2023-02-11T12:09:43.639Z,57.77
2023-02-11T12:12:13.051Z,56.47
2023-02-11T12:15:07.156Z,57.81
2023-02-11T12:17:43.167Z,56.34
2023-02-11T12:20:31.563Z,56.54
2023-02-11T12:23:34.569Z,57.14
2023-02-11T12:26:11.245Z,55.66
2023-02-11T12:28:46.708Z,56.59
2023-02-11T12:31:37.450Z,54.48
2023-02-11T12:34:41.820Z,54.13
2023-02-11T12:37:47.023Z,52.42
2023-02-11T12:40:23.078Z,53.40
2023-02-11T12:43:13.211Z,53.85
2023-02-11T12:46:07.607Z,54.51
2023-02-11T12:48:59.314Z,52.63
2023-02-11T12:51:50.178Z,52.45
2023-02-11T12:54:22.460Z,53.57
2023-02-11T12:57:15.132Z,54.56
2023-02-11T13:00:05.732Z,53.94
2023-02-11T13:03:07.222Z,53.53
2023-02-11T13:05:54.164Z,54.62
2023-02-11T13:08:41.236Z,54.57
2023-02-11T13:11:21.952Z,54.69
2023-02-11T13:14:12.101Z,55.07
2023-02-11T13:16:47.559Z,55.93
2023-02-11T13:19:52.921Z,55.61
2023-02-11T13:22:31.736Z,55.33
2023-02-11T13:25:02.388Z,56.27
2023-02-11T13:28:05.752Z,56.03
2023-02-11T13:30:35.332Z,56.51
2023-02-11T13:33:04.224Z,56.83
2023-02-11T13:35:31.047Z,56.86
2023-02-11T13:38:00.182Z,56.85
2023-02-11T13:40:36.800Z,57.08
2023-02-11T13:43:06.760Z,57.61
2023-02-11T13:45:50.154Z,57.38
2023-02-11T13:48:25.419Z,57.69
2023-02-11T13:50:56.270Z,57.81
2023-02-11T13:53:24.027Z,57.60
2023-02-11T13:55:53.156Z,57.54
2023-02-11T13:58:28.826Z,58.01
2023-02-11T14:00:55.983Z,58.07
2023-02-11T14:03:31.866Z,57.88
2023-02-11T14:06:10.746Z,58.11
2023-02-11T14:08:39.057Z,58.45
2023-02-11T14:11:30.921Z,58.26
2023-02-11T14:14:19.328Z,58.50
2023-02-11T14:17:07.984Z,58.54
2023-02-11T14:19:40.526Z,58.72
2023-02-11T14:22:33.622Z,58.82
2023-02-11T14:25:05.454Z,59.18
2023-02-11T14:27:43.846Z,59.38
2023-02-11T14:30:33.416Z,59.86
2023-02-11T14:33:18.662Z,60.59
2023-02-11T14:35:56.688Z,61.06
2023-02-11T14:38:29.318Z,61.49
2023-02-11T14:41:06.603Z,61.70
2023-02-11T14:43:44.131Z,61.71
2023-02-11T14:46:11.059Z,62.68
2023-02-11T14:48:40.147Z,62.97
2023-02-11T14:51:20.075Z,63.11
2023-02-11T14:53:50.074Z,64.13
2023-02-11T14:56:36.549Z,64.38
2023-02-11T14:59:03.004Z,64.58
2023-02-11T15:01:41.298Z,64.35
2023-02-11T15:04:27.016Z,65.12
2023-02-11T15:06:54.789Z,65.46
2023-02-11T15:09:43.243Z,65.75
2023-02-11T15:12:28.706Z,65.38
2023-02-11T15:14:59.251Z,65.96
2023-02-11T15:17:29.032Z,66.21
2023-02-11T15:19:59.582Z,66.00
2023-02-11T15:22:29.987Z,66.33
2023-02-11T15:25:16.988Z,66.43
2023-02-11T15:27:47.084Z,66.33
2023-02-11T15:30:22.958Z,66.54
2023-02-11T15:33:03.587Z,67.06
2023-02-11T15:35:37.164Z,66.82
2023-02-11T15:38:04.764Z,67.33
2023-02-11T15:40:35.307Z,67.02
2023-02-11T15:43:05.277Z,67.55
2023-02-11T15:45:38.359Z,67.47
2023-02-11T15:48:10.151Z,67.03
2023-02-11T15:50:39.217Z,67.65
2023-02-11T15:53:22.547Z,67.50
2023-02-11T15:55:51.877Z,68.01
2023-02-11T15:58:19.007Z,68.03
2023-02-11T16:00:52.554Z,68.20
2023-02-11T16:03:25.688Z,68.35
2023-02-11T16:05:52.545Z,69.06
2023-02-11T16:08:26.459Z,68.39
2023-02-11T16:11:04.576Z,68.87
2023-02-11T16:13:32.138Z,68.77
2023-02-11T16:16:02.691Z,69.20
2023-02-11T16:18:38.674Z,69.28
2023-02-11T16:21:12.779Z,69.56
2023-02-11T16:23:41.756Z,69.39
2023-02-11T16:26:22.725Z,69.29
2023-02-11T16:28:49.667Z,69.53
2023-02-11T16:31:17.068Z,69.32
2023-02-11T16:33:43.585Z,69.90
2023-02-11T16:36:15.304Z,70.06
2023-02-11T16:38:41.784Z,70.35
2023-02-11T16:41:08.924Z,70.53
2023-02-11T16:43:35.469Z,70.28
2023-02-11T16:46:01.878Z,70.71
2023-02-11T16:48:28.542Z,70.67
2023-02-11T16:50:55.658Z,71.31
2023-02-11T16:53:24.369Z,71.17
2023-02-11T16:55:52.770Z,71.26
2023-02-11T16:58:20.132Z,71.43
2023-02-11T17:00:48.275Z,72.18
2023-02-11T17:03:22.958Z,72.32
2023-02-11T17:05:55.649Z,72.94
2023-02-11T17:08:22.989Z,73.28
2023-02-11T17:10:50.079Z,74.13
2023-02-11T17:13:16.776Z,74.53
2023-02-11T17:15:43.173Z,74.71
2023-02-11T17:18:13.577Z,74.95
2023-02-11T17:20:41.066Z,77.30
2023-02-11T17:23:07.712Z,77.15
2023-02-11T17:25:34.404Z,76.63
2023-02-11T17:28:01.198Z,77.27
2023-02-11T17:30:27.771Z,77.85
2023-02-11T17:32:54.537Z,78.93
2023-02-11T17:35:21.387Z,78.13
2023-02-11T17:37:48.227Z,80.15
2023-02-11T17:40:14.886Z,80.99
2023-02-11T17:42:41.415Z,84.58
2023-02-11T17:45:08.886Z,83.42
2023-02-11T17:47:35.743Z,83.99
2023-02-11T17:50:03.803Z,84.26
2023-02-11T17:52:30.826Z,83.52
2023-02-11T17:54:57.396Z,83.47
2023-02-11T17:57:24.139Z,83.40
2023-02-11T17:59:50.882Z,84.94
2023-02-11T18:02:18.201Z,85.83
2023-02-11T18:04:44.673Z,86.77
2023-02-11T18:07:11.481Z,85.97
2023-02-11T18:09:40.247Z,87.86
2023-02-11T18:12:08.216Z,89.44
2023-02-11T18:14:34.725Z,87.77
2023-02-11T18:17:01.604Z,88.12
2023-02-11T18:19:28.843Z,86.89
2023-02-11T18:21:55.257Z,88.14
2023-02-11T18:24:22.150Z,88.36
2023-02-11T18:26:48.668Z,87.68
2023-02-11T18:29:15.619Z,87.28
2023-02-11T18:31:42.171Z,88.99
2023-02-11T18:34:09.204Z,89.05
2023-02-11T18:36:36.791Z,89.77
2023-02-11T18:39:04.892Z,89.24
2023-02-11T18:41:31.637Z,89.27
2023-02-11T18:43:58.766Z,89.72
2023-02-11T18:46:25.819Z,88.76
2023-02-11T18:48:54.410Z,89.36
2023-02-11T18:51:22.415Z,89.26
2023-02-11T18:53:49.232Z,88.73
2023-02-11T18:56:19.012Z,89.00
2023-02-11T18:58:45.491Z,89.02
2023-02-11T19:01:17.835Z,88.77
2023-02-11T19:03:45.747Z,90.70
2023-02-11T19:06:21.913Z,89.78
2023-02-11T19:08:48.449Z,89.62
2023-02-11T19:11:14.942Z,89.74
2023-02-11T19:13:41.526Z,90.31
2023-02-11T19:16:11.368Z,91.88
2023-02-11T19:18:38.197Z,91.82
2023-02-11T19:21:10.215Z,92.53
2023-02-11T19:23:36.779Z,92.24
2023-02-11T19:26:03.808Z,91.47
2023-02-11T19:28:31.862Z,91.74
2023-02-11T19:30:58.904Z,91.50
2023-02-11T19:33:25.841Z,91.39
2023-02-11T19:35:52.804Z,91.43
2023-02-11T19:38:19.448Z,91.42
2023-02-11T19:40:46.065Z,91.60
2023-02-11T19:43:13.139Z,91.91
2023-02-11T19:45:39.675Z,92.13
2023-02-11T19:48:06.747Z,92.36
2023-02-11T19:50:35.239Z,91.84
2023-02-11T19:53:02.471Z,92.20
2023-02-11T19:55:29.312Z,92.20
2023-02-11T19:57:56.166Z,92.74
2023-02-11T20:00:22.707Z,93.89
2023-02-11T20:02:49.384Z,93.55
2023-02-11T20:05:16.296Z,93.73
2023-02-11T20:07:43.258Z,94.07
2023-02-11T20:10:10.422Z,93.83
2023-02-11T20:12:37.153Z,94.67
2023-02-11T20:15:04.416Z,93.64
2023-02-11T20:17:31.358Z,94.46
2023-02-11T20:19:58.260Z,96.63
2023-02-11T20:22:25.057Z,99.78
2023-02-11T20:24:51.510Z,99.88
2023-02-11T20:27:20.033Z,100.00
2023-02-11T20:29:46.929Z,100.00
2023-02-11T20:32:14.550Z,100.00
2023-02-11T20:34:41.352Z,99.79
2023-02-11T20:37:07.883Z,99.84
2023-02-11T20:39:34.384Z,99.47
2023-02-11T20:42:01.212Z,100.00
2023-02-11T20:44:27.918Z,100.00
2023-02-11T20:46:54.714Z,100.00
2023-02-11T20:49:24.302Z,100.00
2023-02-11T20:51:51.243Z,100.00
2023-02-11T20:54:19.950Z,100.00
2023-02-11T20:56:49.219Z,100.00
2023-02-11T20:59:16.510Z,100.00
2023-02-11T21:01:46.611Z,100.00
2023-02-11T21:04:17.027Z,100.00
2023-02-11T21:06:45.942Z,100.00
2023-02-11T21:09:15.331Z,100.00
2023-02-11T21:11:42.899Z,100.00
2023-02-11T21:14:11.384Z,100.00
2023-02-11T21:16:39.061Z,100.00
2023-02-11T21:19:06.617Z,100.00
2023-02-11T21:21:36.134Z,100.00
2023-02-11T21:24:02.745Z,100.00
2023-02-11T21:26:29.322Z,100.00
2023-02-11T21:28:56.080Z,100.00
2023-02-11T21:31:31.599Z,100.00
2023-02-11T21:33:58.782Z,100.00
2023-02-11T21:36:27.053Z,100.00
2023-02-11T21:38:53.857Z,100.00
2023-02-11T21:41:21.987Z,100.00
2023-02-11T21:43:49.165Z,100.00
2023-02-11T21:46:16.991Z,100.00
2023-02-11T21:48:43.520Z,100.00
2023-02-11T21:51:14.501Z,100.00
2023-02-11T21:53:41.480Z,100.00
2023-02-11T21:56:18.564Z,100.00
2023-02-11T21:58:46.148Z,100.00
2023-02-11T22:01:18.391Z,100.00
2023-02-11T22:03:45.927Z,100.00
2023-02-11T22:06:19.041Z,100.00
2023-02-11T22:08:45.463Z,100.00
2023-02-11T22:11:13.113Z,100.00
2023-02-11T22:13:41.015Z,100.00
2023-02-11T22:16:14.188Z,100.00
2023-02-11T22:18:41.697Z,100.00
2023-02-11T22:21:11.177Z,100.00
2023-02-11T22:23:39.354Z,100.00
2023-02-11T22:26:08.770Z,100.00
2023-02-11T22:28:35.591Z,100.00
2023-02-11T22:31:02.552Z,100.00
2023-02-11T22:33:29.201Z,100.00
2023-02-11T22:36:08.855Z,100.00
2023-02-11T22:38:36.635Z,100.00
2023-02-11T22:41:09.243Z,100.00
2023-02-11T22:43:36.643Z,100.00
2023-02-11T22:46:05.524Z,100.00
2023-02-11T22:48:33.275Z,100.00
2023-02-11T22:51:07.338Z,100.00
2023-02-11T22:53:34.565Z,100.00
2023-02-11T22:56:09.639Z,100.00
2023-02-11T22:58:36.791Z,100.00
2023-02-11T23:01:04.542Z,100.00
2023-02-11T23:03:31.610Z,100.00
2023-02-11T23:05:59.435Z,100.00
2023-02-11T23:08:27.559Z,100.00
2023-02-11T23:10:54.453Z,100.00
2023-02-11T23:13:21.274Z,100.00
2023-02-11T23:15:48.191Z,100.00
2023-02-11T23:18:15.483Z,100.00
2023-02-11T23:20:44.043Z,100.00
2023-02-11T23:23:11.138Z,100.00
2023-02-11T23:25:43.517Z,100.00
2023-02-11T23:28:11.127Z,100.00
2023-02-11T23:30:38.529Z,100.00
2023-02-11T23:33:05.109Z,100.00
2023-02-11T23:35:31.703Z,100.00
2023-02-11T23:37:58.243Z,100.00
2023-02-11T23:40:24.736Z,100.00
2023-02-11T23:42:51.947Z,100.00
2023-02-11T23:45:18.531Z,100.00
2023-02-11T23:47:45.227Z,100.00
2023-02-11T23:50:11.991Z,100.00
2023-02-11T23:52:38.509Z,100.00
2023-02-11T23:55:05.895Z,100.00
2023-02-11T23:57:33.555Z,100.00
